Search for airport 
image banner adimage banner adimage banner ad
image banner ad

33CL - Oak Country Ranch

Located in Paso Robles, United States

ICAO - 33CL, IATA -

Data provided by Airmate  

General information

Coordinates: N35°34'6" W120°47'51"
Elevation is 1200 feet MSL.
Magnetic variation is 15° East
View others Airports in California

Operational data

Special qualification required
Current time UTC:
Current local time:
Weather at : KPRB - Paso Robles Muni ( 19 km )
METAR: KPRB 150853Z AUTO 31011KT 10SM CLR 17/09 A3002 RMK AO2 SLP159 T01670089 51006
TAF: KPRB 150532Z 1506/1606 31015KT P6SM SKC FM151000 34008KT P6SM SKC FM160100 34015KT P6SM SKC
View NOTAMs / SUP AIP / TFR affecting this airport [VIEW]
Communications frequencies: [VIEW]

Runways:

RWY identifierQFULength (ft)Width (ft)SurfaceLDA (ft)
17220050ASPH
35220050ASPH

Airport contact information

Address: Paso Robles United States

Satellite view of 33CL